createdAt,value
2022-11-29T00:00:15.939Z,51.90
2022-11-29T00:00:37.603Z,51.94
2022-11-29T00:00:59.718Z,52.11
2022-11-29T00:01:23.971Z,52.12
2022-11-29T00:01:45.678Z,52.22
2022-11-29T00:02:07.353Z,52.27
2022-11-29T00:02:31.415Z,52.15
2022-11-29T00:02:53.361Z,52.15
2022-11-29T00:03:15.304Z,52.13
2022-11-29T00:03:37.426Z,52.32
2022-11-29T00:04:00.567Z,52.23
2022-11-29T00:04:22.162Z,52.53
2022-11-29T00:04:44.016Z,52.14
2022-11-29T00:05:07.103Z,52.10
2022-11-29T00:05:29.635Z,52.07
2022-11-29T00:05:53.224Z,52.27
2022-11-29T00:06:16.743Z,52.11
2022-11-29T00:06:38.728Z,52.38
2022-11-29T00:07:00.396Z,52.22
2022-11-29T00:07:23.295Z,52.17
2022-11-29T00:07:47.759Z,52.17
2022-11-29T00:08:10.754Z,52.35
2022-11-29T00:08:32.749Z,51.90
2022-11-29T00:08:55.605Z,51.89
2022-11-29T00:09:19.009Z,52.20
2022-11-29T00:09:40.798Z,52.09
2022-11-29T00:10:04.936Z,52.22
2022-11-29T00:10:26.596Z,52.40
2022-11-29T00:10:49.266Z,52.27
2022-11-29T00:11:14.252Z,52.52
2022-11-29T00:12:01.078Z,52.25
2022-11-29T00:12:22.700Z,52.45
2022-11-29T00:12:46.701Z,52.44
2022-11-29T00:13:09.006Z,52.32
2022-11-29T00:13:30.642Z,52.35
2022-11-29T00:13:54.551Z,52.07
2022-11-29T00:14:18.601Z,52.36
2022-11-29T00:14:41.034Z,52.47
2022-11-29T00:15:05.409Z,52.45
2022-11-29T00:15:27.092Z,52.29
2022-11-29T00:15:48.770Z,52.24
2022-11-29T00:16:11.986Z,52.32
2022-11-29T00:16:34.391Z,52.32
2022-11-29T00:16:59.245Z,52.00
2022-11-29T00:17:21.398Z,51.88
2022-11-29T00:17:44.369Z,52.28
2022-11-29T00:18:08.252Z,51.89
2022-11-29T00:18:31.166Z,51.94
2022-11-29T00:18:53.201Z,52.11
2022-11-29T00:19:14.807Z,51.96
2022-11-29T00:19:38.258Z,52.14
2022-11-29T00:20:00.104Z,52.02
2022-11-29T00:20:22.395Z,52.05
2022-11-29T00:20:43.975Z,52.09
2022-11-29T00:21:06.732Z,52.08
2022-11-29T00:21:29.405Z,51.78
2022-11-29T00:21:53.285Z,51.79
2022-11-29T00:22:14.927Z,51.70
2022-11-29T00:22:37.600Z,51.96
2022-11-29T00:23:00.815Z,52.26
2022-11-29T00:23:22.709Z,52.16
2022-11-29T00:23:45.346Z,52.00
2022-11-29T00:24:09.875Z,52.14
2022-11-29T00:24:32.573Z,52.07
2022-11-29T00:24:54.246Z,52.17
2022-11-29T00:25:15.934Z,52.21
2022-11-29T00:25:39.434Z,51.94
2022-11-29T00:26:03.839Z,52.09
2022-11-29T00:26:25.462Z,52.26
2022-11-29T00:26:48.965Z,51.77
2022-11-29T00:27:11.496Z,51.87
2022-11-29T00:27:33.157Z,51.63
2022-11-29T00:27:54.720Z,52.04
2022-11-29T00:28:16.650Z,51.96
2022-11-29T00:28:38.389Z,51.92
2022-11-29T00:29:00.946Z,52.15
2022-11-29T00:29:22.569Z,51.90
2022-11-29T00:29:44.132Z,52.12
2022-11-29T00:30:07.418Z,52.02
2022-11-29T00:30:29.990Z,52.08
2022-11-29T00:30:51.698Z,52.22
2022-11-29T00:31:15.748Z,52.21
2022-11-29T00:31:37.388Z,52.17
2022-11-29T00:32:00.267Z,52.11
2022-11-29T00:32:21.874Z,52.00
2022-11-29T00:32:44.837Z,52.04
2022-11-29T00:33:06.390Z,51.82
2022-11-29T00:33:29.080Z,51.77
2022-11-29T00:33:51.256Z,51.98
2022-11-29T00:34:13.104Z,52.12
2022-11-29T00:34:34.865Z,52.08
2022-11-29T00:34:59.611Z,52.12
2022-11-29T00:35:21.508Z,52.10
2022-11-29T00:35:43.111Z,52.25
2022-11-29T00:36:05.093Z,51.96
2022-11-29T00:36:28.434Z,51.94
2022-11-29T00:36:50.035Z,52.08
2022-11-29T00:37:11.642Z,52.42
2022-11-29T00:37:34.229Z,52.16
2022-11-29T00:37:55.833Z,52.20
2022-11-29T00:38:17.375Z,52.22
2022-11-29T00:38:39.335Z,52.21
2022-11-29T00:39:01.990Z,51.92
2022-11-29T00:39:24.254Z,51.81
2022-11-29T00:39:45.826Z,52.10
2022-11-29T00:40:09.706Z,52.25
2022-11-29T00:40:31.248Z,52.20
2022-11-29T00:40:52.854Z,52.06
2022-11-29T00:41:14.510Z,52.20
2022-11-29T00:41:36.108Z,52.61
2022-11-29T00:41:58.670Z,52.43
2022-11-29T00:42:20.591Z,52.47
2022-11-29T00:42:42.201Z,52.38
2022-11-29T00:43:03.849Z,52.34
2022-11-29T00:43:25.452Z,52.18
2022-11-29T00:43:48.613Z,52.45
2022-11-29T00:44:14.008Z,52.40
2022-11-29T00:44:38.500Z,52.55
2022-11-29T00:45:01.078Z,52.35
2022-11-29T00:45:22.700Z,52.48
2022-11-29T00:45:44.340Z,52.54
2022-11-29T00:46:06.687Z,52.53
2022-11-29T00:46:28.464Z,52.61
2022-11-29T00:46:51.210Z,52.36
2022-11-29T00:47:12.877Z,52.41
2022-11-29T00:47:34.723Z,52.32
2022-11-29T00:47:57.776Z,52.15
2022-11-29T00:48:20.372Z,52.12
2022-11-29T00:48:41.947Z,52.43
2022-11-29T00:49:03.886Z,52.28
2022-11-29T00:49:26.480Z,52.27
2022-11-29T00:49:48.074Z,52.26
2022-11-29T00:50:10.327Z,52.44
2022-11-29T00:50:31.901Z,52.17
2022-11-29T00:50:53.499Z,52.27
2022-11-29T00:51:16.163Z,52.36
2022-11-29T00:51:38.168Z,52.16
2022-11-29T00:51:59.849Z,52.19
2022-11-29T00:52:22.443Z,52.40
2022-11-29T00:52:44.025Z,52.03
2022-11-29T00:53:05.619Z,52.07
2022-11-29T00:53:27.702Z,52.00
2022-11-29T00:53:49.382Z,52.11
2022-11-29T00:54:12.020Z,52.23
2022-11-29T00:54:33.686Z,52.06
2022-11-29T00:54:55.317Z,52.40
2022-11-29T00:55:17.260Z,52.33
2022-11-29T00:55:39.884Z,52.24
2022-11-29T00:56:02.058Z,52.25
2022-11-29T00:56:23.760Z,52.42
2022-11-29T00:56:46.399Z,52.16
2022-11-29T00:57:07.977Z,52.50
2022-11-29T00:57:29.611Z,52.46
2022-11-29T00:57:51.280Z,52.46
2022-11-29T00:58:12.874Z,52.39
2022-11-29T00:58:36.819Z,52.62
2022-11-29T00:58:58.541Z,52.42
2022-11-29T00:59:20.710Z,52.47
2022-11-29T00:59:43.389Z,52.54
2022-11-29T01:00:06.471Z,52.37
2022-11-29T01:00:28.314Z,52.62
2022-11-29T01:00:50.436Z,52.42
2022-11-29T01:01:12.281Z,52.38
2022-11-29T01:01:34.940Z,52.41
2022-11-29T01:01:56.729Z,52.46
2022-11-29T01:02:18.409Z,52.53
2022-11-29T01:02:40.077Z,52.63
2022-11-29T01:03:03.082Z,52.50
2022-11-29T01:03:26.147Z,52.37
2022-11-29T01:03:48.010Z,52.35
2022-11-29T01:04:09.665Z,52.09
2022-11-29T01:04:32.226Z,52.12
2022-11-29T01:04:53.799Z,52.22
2022-11-29T01:05:15.439Z,52.05
2022-11-29T01:05:37.371Z,52.40
2022-11-29T01:06:03.342Z,52.56
2022-11-29T01:06:25.057Z,52.59
2022-11-29T01:06:46.666Z,52.50
2022-11-29T01:07:08.552Z,52.70
2022-11-29T01:07:31.236Z,52.44
2022-11-29T01:07:53.480Z,52.58
2022-11-29T01:08:17.539Z,52.58
2022-11-29T01:08:40.048Z,52.58
2022-11-29T01:09:10.042Z,52.76
2022-11-29T01:09:31.982Z,52.50
2022-11-29T01:09:53.619Z,52.45
2022-11-29T01:10:15.286Z,52.62
2022-11-29T01:10:37.952Z,52.90
2022-11-29T01:11:06.227Z,52.63
2022-11-29T01:11:28.512Z,52.87
2022-11-29T01:11:51.923Z,52.67
2022-11-29T01:12:13.572Z,52.53
2022-11-29T01:12:36.326Z,52.65
2022-11-29T01:12:58.262Z,52.82
2022-11-29T01:13:20.322Z,52.64
2022-11-29T01:13:43.632Z,52.77
2022-11-29T01:14:05.280Z,52.63
2022-11-29T01:14:27.238Z,52.38
2022-11-29T01:14:49.821Z,52.36
2022-11-29T01:15:11.898Z,52.55
2022-11-29T01:15:33.946Z,52.54
2022-11-29T01:16:41.324Z,52.49
2022-11-29T01:17:03.010Z,52.40
2022-11-29T01:17:24.613Z,52.12
2022-11-29T01:17:46.525Z,52.32
2022-11-29T01:18:09.463Z,52.52
2022-11-29T01:18:33.583Z,52.65
2022-11-29T01:18:55.135Z,52.59
2022-11-29T01:19:16.789Z,52.91
2022-11-29T01:19:38.504Z,52.62
2022-11-29T01:20:01.106Z,52.65
2022-11-29T01:20:22.881Z,52.64
2022-11-29T01:20:44.458Z,52.59
2022-11-29T01:21:08.609Z,52.69
2022-11-29T01:21:31.512Z,52.51
2022-11-29T01:21:53.095Z,52.78
2022-11-29T01:22:14.845Z,52.82
2022-11-29T01:22:37.376Z,52.86
2022-11-29T01:23:00.083Z,52.68
2022-11-29T01:23:21.662Z,52.90
2022-11-29T01:23:44.545Z,53.04
2022-11-29T01:24:07.206Z,52.68
2022-11-29T01:24:30.428Z,52.69
2022-11-29T01:24:52.084Z,52.84
2022-11-29T01:25:14.906Z,52.88
2022-11-29T01:25:36.472Z,52.78
2022-11-29T01:25:59.670Z,52.76
2022-11-29T01:26:24.315Z,52.70
2022-11-29T01:26:45.903Z,52.91
2022-11-29T01:27:07.489Z,52.97
2022-11-29T01:27:30.537Z,53.02
2022-11-29T01:27:52.140Z,53.06
2022-11-29T01:28:13.749Z,53.04
2022-11-29T01:28:36.279Z,52.81
2022-11-29T01:28:59.692Z,52.64
2022-11-29T01:29:21.272Z,52.88
2022-11-29T01:29:43.070Z,52.83
2022-11-29T01:30:05.342Z,52.66
2022-11-29T01:30:27.960Z,52.74
2022-11-29T01:30:49.818Z,52.57
2022-11-29T01:31:13.711Z,53.00
2022-11-29T01:31:36.834Z,52.67
2022-11-29T01:31:58.406Z,52.84
2022-11-29T01:32:19.987Z,52.74
2022-11-29T01:32:41.647Z,52.89
2022-11-29T01:33:03.393Z,52.99
2022-11-29T01:33:27.313Z,52.70
2022-11-29T01:33:49.346Z,52.58
2022-11-29T01:34:11.071Z,52.65
2022-11-29T01:34:32.714Z,52.67
2022-11-29T01:34:55.887Z,53.09
2022-11-29T01:35:17.745Z,52.91
2022-11-29T01:35:39.513Z,53.00
2022-11-29T01:36:01.306Z,53.19
2022-11-29T01:36:24.966Z,52.87
2022-11-29T01:36:46.577Z,52.48
2022-11-29T01:37:08.309Z,52.54
2022-11-29T01:37:29.985Z,52.24
2022-11-29T01:37:52.621Z,52.21
2022-11-29T01:38:14.192Z,52.48
2022-11-29T01:38:36.797Z,52.42
2022-11-29T01:38:59.053Z,52.32
2022-11-29T01:39:21.638Z,52.34
2022-11-29T01:39:43.570Z,52.38
2022-11-29T01:40:06.767Z,52.66
2022-11-29T01:40:29.099Z,52.68
2022-11-29T01:41:01.857Z,52.91
2022-11-29T01:41:28.257Z,52.61
2022-11-29T01:41:49.886Z,52.76
2022-11-29T01:42:12.067Z,52.80
2022-11-29T01:42:34.024Z,52.90
2022-11-29T01:42:56.630Z,52.60
2022-11-29T01:43:18.798Z,52.41
2022-11-29T01:43:59.193Z,52.77
2022-11-29T01:44:59.354Z,52.87
2022-11-29T01:45:23.963Z,52.77
2022-11-29T01:45:45.662Z,53.10
2022-11-29T01:46:08.885Z,52.73
2022-11-29T01:46:32.882Z,52.62
2022-11-29T01:46:55.318Z,52.75
2022-11-29T01:47:17.826Z,52.93
2022-11-29T01:47:45.129Z,52.83
2022-11-29T01:48:11.713Z,52.77
2022-11-29T01:48:34.984Z,52.72
2022-11-29T01:49:00.406Z,52.92
2022-11-29T01:49:26.362Z,52.87
2022-11-29T01:49:51.138Z,52.71
2022-11-29T01:50:14.794Z,52.82
2022-11-29T01:50:38.790Z,52.81
2022-11-29T01:51:02.647Z,52.76
2022-11-29T01:51:27.401Z,52.64
2022-11-29T01:51:53.095Z,52.71
2022-11-29T01:52:18.450Z,52.93
2022-11-29T01:52:42.723Z,52.83
2022-11-29T01:53:05.119Z,52.74
2022-11-29T01:53:27.901Z,52.60
2022-11-29T01:53:49.766Z,52.71
2022-11-29T01:54:14.342Z,52.81
2022-11-29T01:54:42.098Z,53.08
2022-11-29T01:55:06.982Z,53.21
2022-11-29T01:55:30.247Z,52.96
2022-11-29T01:55:55.907Z,53.10
2022-11-29T01:56:18.861Z,53.21
2022-11-29T01:56:41.785Z,53.04
2022-11-29T01:57:05.848Z,53.27
2022-11-29T01:57:28.335Z,53.20
2022-11-29T01:57:50.940Z,53.22
2022-11-29T01:58:15.300Z,53.35
2022-11-29T01:58:36.963Z,53.19
2022-11-29T01:59:01.117Z,53.11
2022-11-29T01:59:28.381Z,52.75
2022-11-29T01:59:54.734Z,53.11
2022-11-29T02:00:19.275Z,53.18
2022-11-29T02:00:41.402Z,52.85
2022-11-29T02:01:04.054Z,53.06
2022-11-29T02:01:26.327Z,52.89
2022-11-29T02:01:48.248Z,53.15
2022-11-29T02:02:13.805Z,53.15
2022-11-29T02:02:38.525Z,52.97
2022-11-29T02:03:06.425Z,53.25
2022-11-29T02:03:28.157Z,53.30
2022-11-29T02:03:51.155Z,53.41
2022-11-29T02:04:14.383Z,53.07
2022-11-29T02:04:37.955Z,53.25
2022-11-29T02:05:02.451Z,52.97
2022-11-29T02:05:25.631Z,52.93
2022-11-29T02:05:50.892Z,53.19
2022-11-29T02:06:13.029Z,52.91
2022-11-29T02:06:35.933Z,53.11
2022-11-29T02:06:57.594Z,53.20
2022-11-29T02:07:20.317Z,53.13
2022-11-29T02:07:44.718Z,53.22
2022-11-29T02:08:08.285Z,53.27
2022-11-29T02:08:33.394Z,52.96
2022-11-29T02:08:56.340Z,52.96
2022-11-29T02:09:19.682Z,53.14
2022-11-29T02:09:41.286Z,52.92
2022-11-29T02:10:04.342Z,53.24
2022-11-29T02:10:36.025Z,53.01
2022-11-29T02:11:16.637Z,52.86
2022-11-29T02:12:06.445Z,53.13
2022-11-29T02:12:40.290Z,52.98
2022-11-29T02:13:10.546Z,53.14
2022-11-29T02:13:40.353Z,53.04
2022-11-29T02:14:19.180Z,53.15
2022-11-29T02:14:55.811Z,53.25
2022-11-29T02:15:27.962Z,53.03
2022-11-29T02:15:59.180Z,53.17
2022-11-29T02:16:29.278Z,53.06
2022-11-29T02:16:58.102Z,53.07
2022-11-29T02:17:30.752Z,52.86
2022-11-29T02:18:03.190Z,53.15
2022-11-29T02:18:39.350Z,53.17
2022-11-29T02:19:19.616Z,53.02
2022-11-29T02:20:05.600Z,53.14
2022-11-29T02:20:56.258Z,53.18
2022-11-29T02:21:38.527Z,52.99
2022-11-29T02:22:04.062Z,53.42
2022-11-29T02:22:32.280Z,53.15
2022-11-29T02:22:59.437Z,53.11
2022-11-29T02:23:40.614Z,53.06
2022-11-29T02:24:27.440Z,53.17
2022-11-29T02:25:04.005Z,53.25
2022-11-29T02:25:49.307Z,52.84
2022-11-29T02:26:33.031Z,53.04
2022-11-29T02:27:23.121Z,52.60
2022-11-29T02:28:20.643Z,52.69
2022-11-29T02:28:58.795Z,52.66
2022-11-29T02:29:58.303Z,52.74
2022-11-29T02:30:27.584Z,53.05
2022-11-29T02:31:34.573Z,53.04
2022-11-29T02:32:26.675Z,52.87
2022-11-29T02:33:15.954Z,52.92
2022-11-29T02:33:53.962Z,53.09
2022-11-29T02:34:38.807Z,53.08
2022-11-29T02:35:13.182Z,53.08
2022-11-29T02:35:54.104Z,53.01
2022-11-29T02:36:30.810Z,53.21
2022-11-29T02:37:11.504Z,52.82
2022-11-29T02:37:49.181Z,52.78
2022-11-29T02:38:30.243Z,53.01
2022-11-29T02:39:36.823Z,53.30
2022-11-29T02:40:13.677Z,52.98
2022-11-29T02:40:56.706Z,53.14
2022-11-29T02:41:36.131Z,52.95
2022-11-29T02:42:19.993Z,52.83
2022-11-29T02:43:04.889Z,52.87
2022-11-29T02:43:43.568Z,53.17
2022-11-29T02:44:30.822Z,53.17
2022-11-29T02:45:05.074Z,53.24
2022-11-29T02:45:45.721Z,53.14
2022-11-29T02:46:24.654Z,53.48
2022-11-29T02:46:58.074Z,53.32
2022-11-29T02:47:30.157Z,52.99
2022-11-29T02:48:03.384Z,53.06
2022-11-29T02:48:40.737Z,53.14
2022-11-29T02:49:12.678Z,53.22
2022-11-29T02:49:53.422Z,53.21
2022-11-29T02:50:23.266Z,52.88
2022-11-29T02:50:52.187Z,53.11
2022-11-29T02:51:23.537Z,52.82
2022-11-29T02:51:51.380Z,53.08
2022-11-29T02:52:19.448Z,53.09
2022-11-29T02:52:48.383Z,53.31
2022-11-29T02:53:16.503Z,53.35
2022-11-29T02:53:44.187Z,53.38
2022-11-29T02:54:13.915Z,53.29
2022-11-29T02:54:46.895Z,53.15
2022-11-29T02:55:16.334Z,53.40
2022-11-29T02:55:43.991Z,53.19
2022-11-29T02:56:14.486Z,53.41
2022-11-29T02:56:43.038Z,53.33
2022-11-29T02:57:11.654Z,53.32
2022-11-29T02:57:42.334Z,53.45
2022-11-29T02:58:14.688Z,53.39
2022-11-29T02:58:45.696Z,53.81
2022-11-29T02:59:18.010Z,53.45
2022-11-29T02:59:48.634Z,53.61
2022-11-29T03:00:13.761Z,53.67
2022-11-29T03:00:41.211Z,53.55
2022-11-29T03:01:10.549Z,53.17
2022-11-29T03:01:40.613Z,53.45
2022-11-29T03:02:12.500Z,53.43
2022-11-29T03:02:39.983Z,53.41
2022-11-29T03:03:12.521Z,53.49
2022-11-29T03:03:39.849Z,53.58
2022-11-29T03:04:10.270Z,53.28
2022-11-29T03:04:37.578Z,53.18
2022-11-29T03:05:09.768Z,53.27
2022-11-29T03:05:44.714Z,53.24
2022-11-29T03:06:16.936Z,53.20
2022-11-29T03:06:46.606Z,53.10
2022-11-29T03:07:16.133Z,53.37
2022-11-29T03:07:46.523Z,53.44
2022-11-29T03:08:16.498Z,53.54
2022-11-29T03:08:42.976Z,53.40
2022-11-29T03:09:12.616Z,53.35
2022-11-29T03:09:39.391Z,53.45
2022-11-29T03:10:11.062Z,53.44
2022-11-29T03:10:44.985Z,53.41
2022-11-29T03:11:16.666Z,53.46
2022-11-29T03:11:45.782Z,53.12
2022-11-29T03:12:20.163Z,53.41
2022-11-29T03:12:45.325Z,53.54
2022-11-29T03:13:16.866Z,53.53
2022-11-29T03:13:51.362Z,53.20
2022-11-29T03:14:21.981Z,53.26
2022-11-29T03:14:56.862Z,53.56
2022-11-29T03:15:27.357Z,53.27
2022-11-29T03:15:57.945Z,53.62
2022-11-29T03:16:30.838Z,53.61
2022-11-29T03:17:03.333Z,53.41
2022-11-29T03:17:36.563Z,53.31
2022-11-29T03:18:28.217Z,53.45
2022-11-29T03:19:05.241Z,53.14
2022-11-29T03:19:52.670Z,53.07
2022-11-29T03:20:26.378Z,53.41
2022-11-29T03:20:57.796Z,53.12
2022-11-29T03:21:33.162Z,53.38
2022-11-29T03:22:02.005Z,53.27
2022-11-29T03:22:39.892Z,53.25
2022-11-29T03:23:13.285Z,53.42
2022-11-29T03:23:40.221Z,53.28
2022-11-29T03:24:09.489Z,53.34
2022-11-29T03:24:40.936Z,53.33
2022-11-29T03:25:09.151Z,53.31
2022-11-29T03:25:39.242Z,53.38
2022-11-29T03:26:08.526Z,53.54
2022-11-29T03:26:35.419Z,53.41
2022-11-29T03:27:01.755Z,53.23
2022-11-29T03:27:31.747Z,53.21
2022-11-29T03:28:01.257Z,53.43
2022-11-29T03:28:29.755Z,53.28
2022-11-29T03:28:58.603Z,53.17
2022-11-29T03:29:29.285Z,53.00
2022-11-29T03:29:56.453Z,53.29
2022-11-29T03:30:19.806Z,53.21
2022-11-29T03:30:50.165Z,53.31
2022-11-29T03:31:19.192Z,53.00
2022-11-29T03:31:47.668Z,53.23
2022-11-29T03:32:17.075Z,53.29
2022-11-29T03:32:48.466Z,53.20
2022-11-29T03:33:17.087Z,53.19
2022-11-29T03:33:49.520Z,52.85
2022-11-29T03:34:24.751Z,53.06
2022-11-29T03:34:59.438Z,53.02
2022-11-29T03:35:28.522Z,53.08
2022-11-29T03:35:58.343Z,52.80
2022-11-29T03:36:29.605Z,52.80
2022-11-29T03:36:58.077Z,52.86
2022-11-29T03:37:26.754Z,53.12
2022-11-29T03:37:56.747Z,53.05
2022-11-29T03:38:25.136Z,53.06
2022-11-29T03:38:47.692Z,53.27
2022-11-29T03:39:18.561Z,53.31
2022-11-29T03:39:50.288Z,53.17
2022-11-29T03:40:16.065Z,53.13
2022-11-29T03:40:46.392Z,53.50
2022-11-29T03:41:19.969Z,53.03
2022-11-29T03:41:48.452Z,53.22
2022-11-29T03:42:16.954Z,53.07
2022-11-29T03:42:45.400Z,53.15
2022-11-29T03:43:10.467Z,52.96
2022-11-29T03:43:42.643Z,53.19
2022-11-29T03:44:11.240Z,53.01
2022-11-29T03:44:36.241Z,53.04
2022-11-29T03:45:06.538Z,53.10
2022-11-29T03:45:35.150Z,53.10
2022-11-29T03:46:00.935Z,53.05
2022-11-29T03:46:29.219Z,53.06
2022-11-29T03:46:57.638Z,53.30
2022-11-29T03:47:26.425Z,53.25
2022-11-29T03:47:54.516Z,53.34
2022-11-29T03:48:22.885Z,53.24
2022-11-29T03:48:48.650Z,53.12
2022-11-29T03:49:16.948Z,52.95
2022-11-29T03:49:44.669Z,52.91
2022-11-29T03:50:11.252Z,53.14
2022-11-29T03:50:38.850Z,53.05
2022-11-29T03:51:07.899Z,53.16
2022-11-29T03:51:41.249Z,53.25
2022-11-29T03:52:12.222Z,53.14
2022-11-29T03:52:38.302Z,53.04
2022-11-29T03:53:04.960Z,53.10
2022-11-29T03:53:33.724Z,53.09
2022-11-29T03:54:00.105Z,52.90
2022-11-29T03:54:26.355Z,53.18
2022-11-29T03:54:57.460Z,53.28
2022-11-29T03:55:33.812Z,53.09
2022-11-29T03:55:59.802Z,53.41
2022-11-29T03:56:30.175Z,52.98
2022-11-29T03:56:52.378Z,53.34
2022-11-29T03:57:17.977Z,53.21
2022-11-29T03:57:49.726Z,53.13
2022-11-29T03:58:22.495Z,53.13
2022-11-29T03:58:54.305Z,53.02
2022-11-29T03:59:31.141Z,53.22
2022-11-29T04:00:01.195Z,53.41
2022-11-29T04:00:45.623Z,53.17
2022-11-29T04:01:55.251Z,53.38
2022-11-29T04:02:37.257Z,53.49
2022-11-29T04:03:22.045Z,53.26
2022-11-29T04:04:09.817Z,53.51
2022-11-29T04:05:06.933Z,53.25
2022-11-29T04:05:54.930Z,52.98
2022-11-29T04:06:23.991Z,53.17
2022-11-29T04:07:02.201Z,53.19
2022-11-29T04:07:40.192Z,53.36
2022-11-29T04:09:01.622Z,53.35
2022-11-29T04:09:38.652Z,53.48
2022-11-29T04:10:16.363Z,53.51
2022-11-29T04:10:56.258Z,53.66
2022-11-29T04:11:54.832Z,53.34
2022-11-29T04:12:44.386Z,53.38
2022-11-29T04:13:49.309Z,53.52
2022-11-29T04:14:50.628Z,53.61
2022-11-29T04:15:36.842Z,53.68
2022-11-29T04:16:25.080Z,53.64
2022-11-29T04:17:17.493Z,53.46
2022-11-29T04:18:12.565Z,53.50
2022-11-29T04:18:58.860Z,53.32
2022-11-29T04:19:54.509Z,53.65
2022-11-29T04:20:48.408Z,53.42
2022-11-29T04:21:31.540Z,53.51
2022-11-29T04:22:30.009Z,53.64
2022-11-29T04:23:28.092Z,53.45
2022-11-29T04:24:54.448Z,53.85
2022-11-29T04:25:41.619Z,53.69
2022-11-29T04:26:30.824Z,53.80
2022-11-29T04:27:30.785Z,53.60
2022-11-29T04:28:16.743Z,53.58
2022-11-29T04:29:02.900Z,53.62
2022-11-29T04:29:43.790Z,53.70
2022-11-29T04:30:10.917Z,53.69
2022-11-29T04:30:45.040Z,53.79
2022-11-29T04:31:17.587Z,53.50
2022-11-29T04:31:55.306Z,53.70
2022-11-29T04:32:48.981Z,53.81
2022-11-29T04:33:50.059Z,53.71
2022-11-29T04:34:36.039Z,53.86
2022-11-29T04:35:12.654Z,53.64
2022-11-29T04:35:42.545Z,53.51
2022-11-29T04:36:35.267Z,53.47
2022-11-29T04:37:19.991Z,53.52
2022-11-29T04:38:20.805Z,53.65
2022-11-29T04:39:16.222Z,53.55
2022-11-29T04:39:59.726Z,53.65
2022-11-29T04:40:36.809Z,53.71
2022-11-29T04:41:20.441Z,53.69
2022-11-29T04:42:19.611Z,53.60
2022-11-29T04:43:06.749Z,53.59
2022-11-29T04:44:01.319Z,53.69
2022-11-29T04:44:46.470Z,53.81
2022-11-29T04:45:35.296Z,53.87
2022-11-29T04:46:32.852Z,53.35
2022-11-29T04:47:09.928Z,53.43
2022-11-29T04:47:54.305Z,53.43
2022-11-29T04:48:31.920Z,53.25
2022-11-29T04:49:06.016Z,53.34
2022-11-29T04:49:43.630Z,53.35
2022-11-29T04:50:28.757Z,53.22
2022-11-29T04:51:06.194Z,53.19
2022-11-29T04:51:43.740Z,53.27
2022-11-29T04:52:28.865Z,53.37
2022-11-29T04:53:10.276Z,53.24
2022-11-29T04:53:49.538Z,53.52
2022-11-29T04:54:21.184Z,53.33
2022-11-29T04:54:51.214Z,53.51
2022-11-29T04:55:29.433Z,53.21
2022-11-29T04:56:06.857Z,53.24
2022-11-29T04:56:36.329Z,53.68
2022-11-29T04:57:07.351Z,53.33
2022-11-29T04:57:35.610Z,53.53
2022-11-29T04:58:05.288Z,53.22
2022-11-29T04:58:33.942Z,53.29
2022-11-29T04:59:02.297Z,53.56
2022-11-29T04:59:29.009Z,53.42
2022-11-29T04:59:58.347Z,53.39
2022-11-29T05:00:22.801Z,53.49
2022-11-29T05:00:54.458Z,53.42
2022-11-29T05:01:27.321Z,53.40
2022-11-29T05:02:02.003Z,53.44
2022-11-29T05:02:33.213Z,53.70
2022-11-29T05:02:58.223Z,53.66
2022-11-29T05:03:27.840Z,53.62
2022-11-29T05:03:57.307Z,53.49
2022-11-29T05:04:23.527Z,53.69
2022-11-29T05:04:54.189Z,53.79
2022-11-29T05:05:29.868Z,53.52
2022-11-29T05:05:57.568Z,53.48
2022-11-29T05:06:26.181Z,53.63
2022-11-29T05:06:58.674Z,53.64
2022-11-29T05:07:27.743Z,53.49
2022-11-29T05:07:58.260Z,53.72
2022-11-29T05:08:29.319Z,53.57
2022-11-29T05:09:00.210Z,53.66
2022-11-29T05:09:32.544Z,53.39
2022-11-29T05:10:00.409Z,53.60
2022-11-29T05:10:29.616Z,53.21
2022-11-29T05:11:04.004Z,53.19
2022-11-29T05:11:36.048Z,53.50
2022-11-29T05:12:06.643Z,53.57
2022-11-29T05:12:36.072Z,53.52
2022-11-29T05:13:07.069Z,53.43
2022-11-29T05:13:37.507Z,53.58
2022-11-29T05:14:10.816Z,53.51
2022-11-29T05:14:45.841Z,53.79
2022-11-29T05:15:27.585Z,53.57
2022-11-29T05:16:12.384Z,53.53
2022-11-29T05:16:47.375Z,53.84
2022-11-29T05:17:25.889Z,53.76
2022-11-29T05:17:56.899Z,53.65
2022-11-29T05:18:28.026Z,53.85
2022-11-29T05:19:15.147Z,53.93
2022-11-29T05:20:19.111Z,53.58
2022-11-29T05:20:48.574Z,53.67
2022-11-29T05:21:20.119Z,53.64
2022-11-29T05:21:52.056Z,53.88
2022-11-29T05:22:25.017Z,53.82
2022-11-29T05:22:58.426Z,53.86
2022-11-29T05:23:34.220Z,53.65
2022-11-29T05:24:11.811Z,53.88
2022-11-29T05:24:51.317Z,53.83
2022-11-29T05:25:31.298Z,53.71
2022-11-29T05:26:00.145Z,54.08
2022-11-29T05:26:27.318Z,53.81
2022-11-29T05:26:56.197Z,53.59
2022-11-29T05:27:28.165Z,53.83
2022-11-29T05:27:57.277Z,53.86
2022-11-29T05:28:24.489Z,53.78
2022-11-29T05:28:54.953Z,53.66
2022-11-29T05:29:24.080Z,53.88
2022-11-29T05:29:55.221Z,53.73
2022-11-29T05:30:20.469Z,53.81
2022-11-29T05:31:24.662Z,54.01
2022-11-29T05:31:59.465Z,53.91
2022-11-29T05:32:28.633Z,53.96
2022-11-29T05:32:58.111Z,54.18
2022-11-29T05:33:36.686Z,53.99
2022-11-29T05:34:21.842Z,53.98
2022-11-29T05:35:00.666Z,54.06
2022-11-29T05:36:04.678Z,54.05
2022-11-29T05:36:38.134Z,53.88
2022-11-29T05:37:13.179Z,53.85
2022-11-29T05:37:44.405Z,54.01
2022-11-29T05:38:21.387Z,54.30
2022-11-29T05:39:00.792Z,53.97
2022-11-29T05:39:37.270Z,54.07
2022-11-29T05:40:23.225Z,53.89
2022-11-29T05:41:02.108Z,54.02
2022-11-29T05:41:48.418Z,54.05
2022-11-29T05:42:31.353Z,54.20
2022-11-29T05:43:13.922Z,53.95
2022-11-29T05:43:51.376Z,54.08
2022-11-29T05:44:17.519Z,54.20
2022-11-29T05:44:46.702Z,54.15
2022-11-29T05:45:17.892Z,54.04
2022-11-29T05:45:47.201Z,54.21
2022-11-29T05:46:18.555Z,54.29
2022-11-29T05:46:49.520Z,54.26
2022-11-29T05:47:18.747Z,54.21
2022-11-29T05:47:49.758Z,54.14
2022-11-29T05:48:19.564Z,53.99
2022-11-29T05:48:48.862Z,54.00
2022-11-29T05:49:23.353Z,53.99
2022-11-29T05:49:55.271Z,54.10
2022-11-29T05:50:23.304Z,54.01
2022-11-29T05:50:51.052Z,53.96
2022-11-29T05:51:22.774Z,53.98
2022-11-29T05:51:50.299Z,54.15
2022-11-29T05:52:24.391Z,54.32
2022-11-29T05:52:56.488Z,54.16
2022-11-29T05:53:25.593Z,53.94
2022-11-29T05:53:58.828Z,53.90
2022-11-29T05:54:29.037Z,54.11
2022-11-29T05:55:05.800Z,54.09
2022-11-29T05:55:41.558Z,54.10
2022-11-29T05:56:11.667Z,54.44
2022-11-29T05:56:45.777Z,54.08
2022-11-29T05:57:14.290Z,54.08
2022-11-29T05:57:47.851Z,54.13
2022-11-29T05:58:19.611Z,54.38
2022-11-29T05:58:49.376Z,54.21
2022-11-29T05:59:16.323Z,54.43
2022-11-29T05:59:39.131Z,54.24
2022-11-29T06:00:03.120Z,54.23
2022-11-29T06:00:42.120Z,54.31
2022-11-29T06:01:15.186Z,54.16
2022-11-29T06:01:46.937Z,54.32
2022-11-29T06:02:23.791Z,54.35
2022-11-29T06:02:55.420Z,54.25
2022-11-29T06:03:25.645Z,54.33
2022-11-29T06:03:57.598Z,54.31
2022-11-29T06:04:24.200Z,54.29
2022-11-29T06:05:03.574Z,54.16
2022-11-29T06:05:36.068Z,54.34
2022-11-29T06:06:00.956Z,54.39
2022-11-29T06:06:34.662Z,54.32
2022-11-29T06:07:03.643Z,54.41
2022-11-29T06:07:31.852Z,54.46
2022-11-29T06:08:03.473Z,54.23
2022-11-29T06:08:37.286Z,54.13
2022-11-29T06:09:07.917Z,54.42
2022-11-29T06:09:33.677Z,54.32
2022-11-29T06:10:02.355Z,54.33
2022-11-29T06:10:28.420Z,54.17
2022-11-29T06:10:57.669Z,54.30
2022-11-29T06:11:25.135Z,54.42
2022-11-29T06:11:50.390Z,54.30
2022-11-29T06:12:20.761Z,54.48
2022-11-29T06:12:46.318Z,54.38
2022-11-29T06:13:21.936Z,54.41
2022-11-29T06:13:55.314Z,54.53
2022-11-29T06:14:36.202Z,54.57
2022-11-29T06:15:21.048Z,54.46
2022-11-29T06:16:10.963Z,54.50
2022-11-29T06:17:18.261Z,54.59
2022-11-29T06:17:55.218Z,54.63
2022-11-29T06:18:31.805Z,54.58
2022-11-29T06:19:33.568Z,54.58
2022-11-29T06:20:23.365Z,54.73
2022-11-29T06:21:09.016Z,54.80
2022-11-29T06:21:40.120Z,54.72
2022-11-29T06:22:16.990Z,54.77
2022-11-29T06:23:09.311Z,54.67
2022-11-29T06:23:54.477Z,54.77
2022-11-29T06:24:50.687Z,54.90
2022-11-29T06:25:23.435Z,54.63
2022-11-29T06:26:03.545Z,54.64
2022-11-29T06:26:41.927Z,54.58
2022-11-29T06:27:29.306Z,54.60
2022-11-29T06:28:19.262Z,54.80
2022-11-29T06:28:57.419Z,54.77